createdAt,value
2022-09-05T00:00:19.434Z,96200.00
2022-09-05T00:06:07.506Z,96199.00
2022-09-05T00:11:50.161Z,96190.00
2022-09-05T00:19:50.328Z,96189.00
2022-09-05T00:24:33.930Z,96179.00
2022-09-05T00:31:05.854Z,96176.00
2022-09-05T00:36:05.454Z,96184.00
2022-09-05T00:41:34.333Z,96178.00
2022-09-05T00:47:47.978Z,96184.00
2022-09-05T00:53:41.930Z,96185.00
2022-09-05T00:59:43.989Z,96166.00
2022-09-05T01:06:06.647Z,96174.00
2022-09-05T01:11:53.914Z,96175.00
2022-09-05T01:17:51.617Z,96182.00
2022-09-05T01:24:03.113Z,96170.00
2022-09-05T01:29:50.683Z,96173.00
2022-09-05T01:36:10.529Z,96174.00
2022-09-05T01:42:15.324Z,96179.00
2022-09-05T01:48:24.280Z,96167.00
2022-09-05T01:54:27.011Z,96175.00
2022-09-05T02:00:17.686Z,96175.00
2022-09-05T02:06:02.814Z,96170.00
2022-09-05T02:12:27.522Z,96164.00
2022-09-05T02:17:58.664Z,96175.00
2022-09-05T02:24:04.998Z,96180.00
2022-09-05T02:29:55.844Z,96182.00
2022-09-05T02:35:44.029Z,96190.00
2022-09-05T02:45:06.536Z,96191.00
2022-09-05T02:47:56.175Z,96182.00
2022-09-05T02:57:33.653Z,96190.00
2022-09-05T03:00:13.655Z,96195.00
2022-09-05T03:06:13.312Z,96198.00
2022-09-05T03:12:43.336Z,96196.00
2022-09-05T03:18:52.290Z,96188.00
2022-09-05T03:24:55.585Z,96192.00
2022-09-05T03:31:06.450Z,96197.00
2022-09-05T03:37:09.131Z,96198.00
2022-09-05T03:43:18.136Z,96197.00
2022-09-05T03:50:15.327Z,96188.00
2022-09-05T03:57:23.217Z,96188.00
2022-09-05T04:03:26.972Z,96185.00
2022-09-05T04:08:34.309Z,96185.00
2022-09-05T04:14:19.421Z,96180.00
2022-09-05T04:20:11.852Z,96176.00
2022-09-05T04:26:11.019Z,96175.00
2022-09-05T04:32:17.690Z,96190.00
2022-09-05T04:37:48.108Z,96189.00
2022-09-05T04:43:43.290Z,96186.00
2022-09-05T04:49:24.474Z,96192.00
2022-09-05T04:55:11.194Z,96188.00
2022-09-05T05:05:58.549Z,96187.00
2022-09-05T05:07:22.781Z,96210.00
2022-09-05T05:18:00.667Z,96209.00
2022-09-05T05:19:57.851Z,96207.00
2022-09-05T05:25:51.449Z,96217.00
2022-09-05T05:31:33.154Z,96230.00
2022-09-05T05:37:11.572Z,96228.00
2022-09-05T05:42:40.938Z,96241.00
2022-09-05T05:48:30.605Z,96248.00
2022-09-05T05:54:24.280Z,96246.00
2022-09-05T06:00:27.317Z,96243.00
2022-09-05T06:05:59.810Z,96248.00
2022-09-05T06:14:55.646Z,96249.00
2022-09-05T06:18:28.220Z,96253.00
2022-09-05T06:24:46.866Z,96254.00
2022-09-05T06:30:22.243Z,96261.00
2022-09-05T06:36:24.452Z,96261.00
2022-09-05T06:42:43.647Z,96256.00
2022-09-05T06:48:36.598Z,96270.00
2022-09-05T06:54:59.507Z,96261.00
2022-09-05T07:00:52.433Z,96257.00
2022-09-05T07:07:01.443Z,96264.00
2022-09-05T07:12:39.351Z,96263.00
2022-09-05T07:18:47.575Z,96267.00
2022-09-05T07:24:51.866Z,96279.00
2022-09-05T07:30:14.191Z,96275.00
2022-09-05T07:35:44.295Z,96276.00
2022-09-05T07:41:27.293Z,96273.00
2022-09-05T07:47:08.251Z,96287.00
2022-09-05T07:56:50.858Z,96289.00
2022-09-05T07:58:45.315Z,96294.00
2022-09-05T08:04:32.543Z,96294.00
2022-09-05T08:10:15.563Z,96288.00
2022-09-05T08:16:09.879Z,96287.00
2022-09-05T08:21:49.771Z,96283.00
2022-09-05T08:27:33.376Z,96271.00
2022-09-05T08:33:11.387Z,96281.00
2022-09-05T08:38:43.349Z,96274.00
2022-09-05T08:46:36.845Z,96267.00
2022-09-05T08:50:29.526Z,96265.00
2022-09-05T08:56:21.102Z,96270.00
2022-09-05T09:02:46.554Z,96261.00
2022-09-05T09:09:05.968Z,96261.00
2022-09-05T09:14:48.524Z,96252.00
2022-09-05T09:20:47.159Z,96250.00
2022-09-05T09:26:24.541Z,96253.00
2022-09-05T09:32:01.198Z,96248.00
2022-09-05T09:38:08.093Z,96242.00
2022-09-05T09:44:06.707Z,96244.00
2022-09-05T09:50:03.529Z,96240.00
2022-09-05T09:55:41.193Z,96232.00
2022-09-05T10:01:35.163Z,96240.00
2022-09-05T10:11:00.719Z,96239.00
2022-09-05T10:13:27.332Z,96235.00
2022-09-05T10:25:52.071Z,96238.00
2022-09-05T10:32:27.538Z,96240.00
2022-09-05T10:37:14.141Z,96219.00
2022-09-05T10:42:59.900Z,96212.00
2022-09-05T10:48:53.280Z,96216.00
2022-09-05T10:54:30.010Z,96202.00
2022-09-05T11:02:22.801Z,96207.00
2022-09-05T11:06:24.880Z,96199.00
2022-09-05T11:12:20.857Z,96190.00
2022-09-05T11:18:04.763Z,96199.00
2022-09-05T11:23:57.131Z,96199.00
2022-09-05T11:29:35.683Z,96195.00
2022-09-05T11:39:48.847Z,96190.00
2022-09-05T11:41:43.489Z,96180.00
2022-09-05T11:48:09.152Z,96176.00
2022-09-05T11:54:41.438Z,96187.00
2022-09-05T12:00:41.167Z,96177.00
2022-09-05T12:06:48.193Z,96173.00
2022-09-05T12:12:41.904Z,96175.00
2022-09-05T12:18:46.943Z,96165.00
2022-09-05T12:25:24.715Z,96159.00
2022-09-05T12:30:53.176Z,96157.00
2022-09-05T12:39:52.163Z,96165.00
2022-09-05T12:44:38.664Z,96157.00
2022-09-05T12:49:07.979Z,96151.00
2022-09-05T12:54:57.096Z,96154.00
2022-09-05T13:03:03.139Z,96146.00
2022-09-05T13:06:47.000Z,96140.00
2022-09-05T13:13:49.881Z,96148.00
2022-09-05T13:18:37.471Z,96141.00
2022-09-05T13:24:22.197Z,96137.00
2022-09-05T13:30:23.824Z,96132.00
2022-09-05T13:38:04.622Z,96121.00
2022-09-05T13:41:59.598Z,96107.00
2022-09-05T13:47:54.520Z,96092.00
2022-09-05T13:53:52.094Z,96091.00
2022-09-05T13:59:24.968Z,96102.00
2022-09-05T14:05:19.478Z,96067.00
2022-09-05T14:11:07.688Z,96082.00
2022-09-05T14:16:53.505Z,96052.00
2022-09-05T14:23:07.929Z,96034.00
2022-09-05T14:28:56.453Z,96033.00
2022-09-05T14:37:40.802Z,96029.00
2022-09-05T14:41:34.673Z,96042.00
2022-09-05T14:47:35.005Z,96085.00
2022-09-05T15:02:55.257Z,96076.00
2022-09-05T15:05:29.637Z,96081.00
2022-09-05T15:12:19.699Z,96075.00
2022-09-05T15:17:05.151Z,96077.00
2022-09-05T15:22:48.024Z,96072.00
2022-09-05T15:28:41.444Z,96067.00
2022-09-05T15:34:31.690Z,96061.00
2022-09-05T15:40:07.653Z,96054.00
2022-09-05T15:46:03.617Z,96055.00
2022-09-05T15:51:51.565Z,96049.00
2022-09-05T15:57:39.725Z,96044.00
2022-09-05T16:04:49.828Z,96039.00
2022-09-05T16:10:45.069Z,96038.00
2022-09-05T16:21:23.360Z,96043.00
2022-09-05T16:23:35.083Z,96047.00
2022-09-05T16:27:59.914Z,96051.00
2022-09-05T16:33:32.288Z,96047.00
2022-09-05T16:39:16.848Z,96051.00
2022-09-05T16:45:33.497Z,96046.00
2022-09-05T16:51:34.829Z,96044.00
2022-09-05T16:57:10.510Z,96048.00
2022-09-05T17:03:12.392Z,96038.00
2022-09-05T17:08:40.376Z,96040.00
2022-09-05T17:14:17.577Z,96037.00
2022-09-05T17:20:06.171Z,96036.00
2022-09-05T17:29:31.435Z,96040.00
2022-09-05T17:32:02.174Z,96039.00
2022-09-05T17:37:36.549Z,96035.00
2022-09-05T17:43:13.316Z,96033.00
2022-09-05T17:49:18.290Z,96042.00
2022-09-05T17:54:52.586Z,96037.00
2022-09-05T18:00:44.919Z,96035.00
2022-09-05T18:06:17.714Z,96037.00
2022-09-05T18:12:18.780Z,96045.00
2022-09-05T18:18:29.934Z,96045.00
2022-09-05T18:24:07.992Z,96048.00
2022-09-05T18:29:58.050Z,96053.00
2022-09-05T18:35:38.336Z,96047.00
2022-09-05T18:41:15.875Z,96053.00
2022-09-05T18:46:51.793Z,96049.00
2022-09-05T18:52:26.339Z,96053.00
2022-09-05T18:58:05.580Z,96054.00
2022-09-05T19:03:36.123Z,96053.00
2022-09-05T19:09:09.874Z,96048.00
2022-09-05T19:14:54.927Z,96043.00
2022-09-05T19:20:33.817Z,96041.00
2022-09-05T19:26:10.045Z,96051.00
2022-09-05T19:36:50.138Z,96044.00
2022-09-05T19:37:47.319Z,96054.00
2022-09-05T19:47:43.030Z,96047.00
2022-09-05T19:49:12.098Z,96039.00
2022-09-05T19:54:43.611Z,96036.00
2022-09-05T20:00:21.633Z,96029.00
2022-09-05T20:05:50.839Z,96029.00
2022-09-05T20:11:45.198Z,96029.00
2022-09-05T20:17:29.845Z,96016.00
2022-09-05T20:23:09.687Z,96021.00
2022-09-05T20:28:40.221Z,96020.00
2022-09-05T20:36:06.889Z,96010.00
2022-09-05T20:43:35.069Z,96010.00
2022-09-05T20:48:18.042Z,96014.00
2022-09-05T20:54:26.493Z,96017.00
2022-09-05T20:58:14.769Z,96012.00
2022-09-05T21:04:04.194Z,96008.00
2022-09-05T21:09:32.618Z,96011.00
2022-09-05T21:15:24.275Z,96009.00
2022-09-05T21:21:28.077Z,96009.00
2022-09-05T21:26:53.701Z,96001.00
2022-09-05T21:32:24.184Z,96010.00
2022-09-05T21:38:01.716Z,96006.00
2022-09-05T21:47:34.638Z,96008.00
2022-09-05T21:49:23.290Z,96007.00
2022-09-05T21:59:16.463Z,96017.00
2022-09-05T22:00:42.619Z,96012.00
2022-09-05T22:06:14.594Z,96006.00
2022-09-05T22:11:50.465Z,96001.00
2022-09-05T22:17:22.356Z,95991.00
2022-09-05T22:22:56.752Z,95991.00
2022-09-05T22:28:27.367Z,95982.00
2022-09-05T22:34:01.982Z,95987.00
2022-09-05T22:39:36.597Z,95979.00
2022-09-05T22:45:08.579Z,95991.00
2022-09-05T22:50:37.681Z,95974.00
2022-09-05T22:56:08.400Z,95974.00
2022-09-05T23:01:36.459Z,95978.00
2022-09-05T23:07:04.965Z,95979.00
2022-09-05T23:12:36.904Z,95973.00
2022-09-05T23:18:08.663Z,95971.00
2022-09-05T23:23:38.073Z,95963.00
2022-09-05T23:29:06.146Z,95965.00
2022-09-05T23:34:34.021Z,95964.00
2022-09-05T23:40:02.282Z,95958.00
2022-09-05T23:45:31.111Z,95955.00
2022-09-05T23:51:09.869Z,95950.00
2022-09-05T23:56:38.044Z,95937.00
